Time;durP1;ratioP1;P1;durP2;ratioP2;P2;SDS_P1;SDS_P2;PMS_P1;PMS_P2;Temp;Humidity;BMP_temperature;BMP_pressure;BME280_temperature;BME280_humidity;BME280_pressure;Samples;Min_cycle;Max_cycle;Signal;HPM_P1;HPM_P2
2023/02/11 00:01:10;;;;;;;35.63;27.00;;;2.80;99.90;;;;;;5118496;28;20406;-41
2023/02/11 00:03:37;;;;;;;37.80;28.90;;;2.80;99.90;;;;;;5119202;28;20190;-40
2023/02/11 00:06:07;;;;;;;38.03;28.10;;;2.70;99.90;;;;;;5118228;28;20461;-40
2023/02/11 00:08:34;;;;;;;39.53;27.13;;;2.70;99.90;;;;;;5117483;28;20413;-42
2023/02/11 00:10:59;;;;;;;40.43;27.10;;;2.70;99.90;;;;;;5117988;28;20394;-39
2023/02/11 00:13:25;;;;;;;35.60;27.83;;;2.70;99.90;;;;;;5117653;28;20518;-40
2023/02/11 00:15:51;;;;;;;36.10;27.90;;;2.70;99.90;;;;;;5118129;28;20187;-40
2023/02/11 00:18:16;;;;;;;39.27;29.60;;;2.60;99.90;;;;;;5117869;28;20849;-42
2023/02/11 00:20:43;;;;;;;40.90;29.93;;;2.60;99.90;;;;;;5116812;28;20198;-40
2023/02/11 00:23:08;;;;;;;37.57;28.77;;;2.60;99.90;;;;;;5117293;28;20191;-40
2023/02/11 00:25:38;;;;;;;37.03;29.10;;;2.60;99.90;;;;;;5117282;28;20481;-40
2023/02/11 00:28:04;;;;;;;37.90;28.90;;;2.60;99.90;;;;;;5108156;28;20210;-41
2023/02/11 00:30:29;;;;;;;42.50;29.87;;;2.50;99.90;;;;;;5097940;28;20824;-40
2023/02/11 00:32:55;;;;;;;42.40;28.77;;;2.50;99.90;;;;;;5097589;28;20592;-43
2023/02/11 00:35:22;;;;;;;39.63;28.37;;;2.50;99.90;;;;;;5098000;28;20204;-41
2023/02/11 00:37:48;;;;;;;36.93;27.50;;;2.50;99.90;;;;;;5097700;28;21025;-41
2023/02/11 00:40:14;;;;;;;35.00;27.40;;;2.50;99.90;;;;;;5097952;28;20414;-41
2023/02/11 00:42:41;;;;;;;35.90;27.70;;;2.50;99.90;;;;;;5098264;28;20164;-40
2023/02/11 00:45:08;;;;;;;37.73;27.13;;;2.50;99.90;;;;;;5097310;28;20829;-43
2023/02/11 00:47:34;;;;;;;35.63;28.30;;;2.40;99.90;;;;;;5097158;28;20446;-40
2023/02/11 00:50:03;;;;;;;38.47;27.23;;;2.40;99.90;;;;;;5096522;28;20460;-41
2023/02/11 00:52:29;;;;;;;39.20;30.97;;;2.40;99.90;;;;;;5097720;28;21071;-42
2023/02/11 00:54:55;;;;;;;37.00;27.50;;;2.30;99.90;;;;;;5097553;28;20696;-42
2023/02/11 00:57:20;;;;;;;40.00;28.90;;;2.30;99.90;;;;;;5097730;28;20422;-41
2023/02/11 00:59:46;;;;;;;34.60;25.23;;;2.30;99.90;;;;;;5097811;28;20181;-42
2023/02/11 01:02:12;;;;;;;31.33;24.47;;;2.30;99.90;;;;;;5097378;28;20570;-40
2023/02/11 01:04:37;;;;;;;33.03;25.70;;;2.30;99.90;;;;;;5097621;28;20208;-41
2023/02/11 01:07:03;;;;;;;34.70;25.77;;;2.30;99.90;;;;;;5097005;28;20207;-40
2023/02/11 01:09:29;;;;;;;34.93;25.93;;;2.30;99.90;;;;;;5097309;28;20172;-40
2023/02/11 01:11:54;;;;;;;35.40;27.00;;;2.30;99.90;;;;;;5096244;28;20203;-42
2023/02/11 01:14:20;;;;;;;35.37;25.10;;;2.30;99.90;;;;;;5096226;28;20690;-43
2023/02/11 01:16:46;;;;;;;32.93;25.67;;;2.20;99.90;;;;;;5096908;28;20207;-41
2023/02/11 01:19:11;;;;;;;33.03;24.63;;;2.20;99.90;;;;;;5095665;28;20501;-42
2023/02/11 01:21:37;;;;;;;35.47;25.03;;;2.20;99.90;;;;;;5096711;28;20176;-42
2023/02/11 01:24:03;;;;;;;37.37;27.00;;;2.20;99.90;;;;;;5097590;28;20239;-41
2023/02/11 01:26:28;;;;;;;35.37;25.70;;;2.20;99.90;;;;;;5097012;28;20216;-43
2023/02/11 01:28:54;;;;;;;35.87;25.60;;;2.20;99.90;;;;;;5098038;28;20207;-42
2023/02/11 01:31:19;;;;;;;33.87;25.57;;;2.20;99.90;;;;;;5098031;28;20434;-42
2023/02/11 01:33:45;;;;;;;33.37;24.37;;;2.10;99.90;;;;;;5108035;28;20561;-42
2023/02/11 01:36:11;;;;;;;31.20;23.57;;;2.10;99.90;;;;;;5103099;28;20195;-41
2023/02/11 01:38:38;;;;;;;35.67;24.40;;;2.10;99.90;;;;;;5076785;28;20249;-45
2023/02/11 01:41:08;;;;;;;33.40;23.90;;;2.10;99.90;;;;;;5080561;28;20765;-42
2023/02/11 01:43:37;;;;;;;33.13;23.77;;;2.10;99.90;;;;;;5097631;28;20422;-41
2023/02/11 01:46:12;;;;;;;32.90;25.00;;;2.00;99.90;;;;;;5093120;28;20479;-43
2023/02/11 01:48:41;;;;;;;34.90;25.03;;;2.00;99.90;;;;;;5083871;28;20445;-45
2023/02/11 01:51:20;;;;;;;34.37;25.37;;;2.00;99.90;;;;;;5077248;28;20705;-42
2023/02/11 01:59:28;;;;;;;30.17;22.73;;;1.90;99.90;;;;;;5093323;28;20463;-40
2023/02/11 02:01:59;;;;;;;35.30;26.37;;;1.90;99.90;;;;;;5097063;28;20445;-44
2023/02/11 02:04:30;;;;;;;38.40;24.90;;;1.90;99.90;;;;;;5095171;28;20426;-41
2023/02/11 02:07:15;;;;;;;34.70;25.03;;;1.90;99.90;;;;;;5095450;28;20523;-43
2023/02/11 02:09:44;;;;;;;35.03;24.27;;;1.90;99.90;;;;;;5075482;28;20481;-42
2023/02/11 02:12:10;;;;;;;32.77;24.23;;;1.90;99.90;;;;;;5073853;28;20513;-43
2023/02/11 02:14:41;;;;;;;31.50;23.57;;;1.90;99.90;;;;;;5075117;28;20870;-43
2023/02/11 02:17:37;;;;;;;33.67;24.27;;;1.90;99.90;;;;;;5075666;28;20264;-41
2023/02/11 02:20:15;;;;;;;34.33;25.03;;;1.80;99.90;;;;;;5073428;28;20443;-42
2023/02/11 02:22:59;;;;;;;31.50;23.97;;;1.80;99.90;;;;;;5076619;28;20423;-44
2023/02/11 02:25:58;;;;;;;28.50;23.03;;;1.80;99.90;;;;;;5076247;28;20471;-42
2023/02/11 02:28:49;;;;;;;33.90;24.70;;;1.80;99.90;;;;;;5075385;28;20704;-41
2023/02/11 02:31:52;;;;;;;32.83;25.33;;;1.80;99.90;;;;;;5076693;28;20420;-41
2023/02/11 02:34:26;;;;;;;32.20;23.30;;;1.80;99.90;;;;;;5076201;28;20530;-42
2023/02/11 02:36:59;;;;;;;32.53;23.77;;;1.80;99.90;;;;;;5076345;28;20511;-42
2023/02/11 02:39:28;;;;;;;33.70;24.63;;;1.80;99.90;;;;;;5075506;28;20708;-41
2023/02/11 02:41:54;;;;;;;32.60;24.80;;;1.80;99.90;;;;;;5074815;28;20693;-42
2023/02/11 02:44:20;;;;;;;32.37;23.63;;;1.80;99.90;;;;;;5075133;28;20431;-44
2023/02/11 02:46:46;;;;;;;35.20;24.77;;;1.80;99.90;;;;;;5078798;28;20304;-42
2023/02/11 02:49:13;;;;;;;33.77;24.40;;;1.70;99.90;;;;;;5079983;28;20510;-41
2023/02/11 02:52:10;;;;;;;33.90;23.80;;;1.70;99.90;;;;;;5079813;28;20172;-42
2023/02/11 02:55:07;;;;;;;33.27;23.60;;;1.70;99.90;;;;;;5078864;28;21016;-41
2023/02/11 02:57:57;;;;;;;33.60;23.93;;;1.70;99.90;;;;;;5079033;28;20835;-42
2023/02/11 03:00:50;;;;;;;39.27;24.50;;;1.70;1.00;;;;;;5080312;28;20851;-42
2023/02/11 03:03:43;;;;;;;32.90;23.30;;;1.70;1.00;;;;;;5079581;28;20732;-40
2023/02/11 03:06:41;;;;;;;33.13;23.20;;;1.70;1.00;;;;;;5098988;28;20541;-40
2023/02/11 03:09:13;;;;;;;34.67;24.53;;;1.70;1.00;;;;;;5054097;28;20735;-42
2023/02/11 03:11:39;;;;;;;33.90;24.83;;;1.60;1.00;;;;;;5099395;28;20700;-41
2023/02/11 03:14:09;;;;;;;34.37;24.80;;;1.70;1.00;;;;;;5101750;28;20444;-42
2023/02/11 03:16:37;;;;;;;34.93;23.77;;;1.60;1.00;;;;;;5120001;28;20433;-41
2023/02/11 03:19:11;;;;;;;32.27;25.10;;;1.60;1.00;;;;;;5120601;27;20448;-40
2023/02/11 03:21:38;;;;;;;31.83;23.47;;;1.60;1.00;;;;;;5119759;28;20417;-41
2023/02/11 03:24:07;;;;;;;30.57;23.50;;;1.60;1.00;;;;;;5118012;28;20477;-42
2023/02/11 03:26:47;;;;;;;34.80;24.13;;;1.60;1.00;;;;;;5118425;28;20469;-41
2023/02/11 03:29:31;;;;;;;34.90;25.40;;;1.60;1.00;;;;;;5120190;28;20413;-41
2023/02/11 03:32:14;;;;;;;33.53;24.33;;;1.60;1.00;;;;;;5119709;27;20546;-40
2023/02/11 03:34:43;;;;;;;31.90;24.63;;;1.60;1.00;;;;;;5119039;28;20683;-41
2023/02/11 03:37:17;;;;;;;33.67;24.27;;;1.60;1.00;;;;;;5119576;28;20432;-40
2023/02/11 03:39:49;;;;;;;34.07;23.27;;;1.60;1.00;;;;;;5118559;28;20629;-44
2023/02/11 03:42:15;;;;;;;31.43;24.30;;;1.60;1.00;;;;;;5118733;28;20425;-41
2023/02/11 03:44:47;;;;;;;36.90;26.13;;;1.60;1.00;;;;;;5118497;28;20508;-41
2023/02/11 03:47:14;;;;;;;33.47;25.03;;;1.60;1.00;;;;;;5117854;28;20676;-42
2023/02/11 03:49:41;;;;;;;35.03;24.97;;;1.60;1.00;;;;;;5119199;28;20751;-41
2023/02/11 03:52:10;;;;;;;35.53;25.90;;;1.60;1.00;;;;;;5119034;28;20413;-42
2023/02/11 03:54:35;;;;;;;35.77;24.87;;;1.60;1.00;;;;;;5119053;28;20473;-41
2023/02/11 03:57:02;;;;;;;34.53;25.40;;;1.50;1.00;;;;;;5119196;28;20512;-41
2023/02/11 03:59:28;;;;;;;31.83;24.43;;;1.50;1.00;;;;;;5118400;28;20409;-43
2023/02/11 04:01:54;;;;;;;36.70;25.50;;;1.50;1.00;;;;;;5116945;28;20583;-45
2023/02/11 04:04:19;;;;;;;29.07;24.10;;;1.50;1.00;;;;;;5117684;28;20501;-41
2023/02/11 04:06:45;;;;;;;30.13;24.47;;;1.50;1.00;;;;;;5115605;28;20284;-40
2023/02/11 04:09:11;;;;;;;32.40;25.10;;;1.50;1.00;;;;;;5117002;28;20259;-41
2023/02/11 04:11:36;;;;;;;37.37;25.63;;;1.50;1.00;;;;;;5117645;28;20259;-40
2023/02/11 04:14:02;;;;;;;39.40;25.80;;;1.50;1.00;;;;;;5117238;28;20248;-42
2023/02/11 04:16:29;;;;;;;34.30;25.60;;;1.50;1.00;;;;;;5117069;28;20236;-41
2023/02/11 04:18:56;;;;;;;34.67;24.80;;;1.50;1.00;;;;;;5118654;28;20575;-40
2023/02/11 04:21:21;;;;;;;32.57;25.13;;;1.50;1.00;;;;;;5118666;28;20421;-41
2023/02/11 04:23:47;;;;;;;35.93;26.17;;;1.50;1.00;;;;;;5118427;27;20470;-41
2023/02/11 04:26:13;;;;;;;33.33;24.90;;;1.50;1.00;;;;;;5118483;28;20196;-41
2023/02/11 04:28:39;;;;;;;36.20;23.87;;;1.50;1.00;;;;;;5118137;28;20210;-41
2023/02/11 04:31:05;;;;;;;32.87;24.43;;;1.50;1.00;;;;;;5117680;28;20257;-40
2023/02/11 04:33:30;;;;;;;33.70;24.97;;;1.50;1.00;;;;;;5117854;28;20257;-41
2023/02/11 04:35:56;;;;;;;36.23;25.67;;;1.60;1.00;;;;;;5118140;28;20419;-42
2023/02/11 04:38:23;;;;;;;31.07;23.43;;;1.60;1.00;;;;;;5118262;28;20211;-40
2023/02/11 04:40:49;;;;;;;40.47;25.93;;;1.60;1.00;;;;;;5118266;28;20171;-41
2023/02/11 04:43:14;;;;;;;32.23;24.90;;;1.70;1.00;;;;;;5118390;28;20498;-41
2023/02/11 04:45:40;;;;;;;33.10;24.70;;;1.70;1.00;;;;;;5116926;28;20863;-42
2023/02/11 04:48:06;;;;;;;35.13;25.50;;;1.70;1.00;;;;;;5116575;28;20180;-42
2023/02/11 04:50:31;;;;;;;34.60;24.33;;;1.80;1.00;;;;;;5116868;28;20199;-42
2023/02/11 04:52:57;;;;;;;32.20;24.40;;;1.80;1.00;;;;;;5117280;28;20268;-42
2023/02/11 04:55:23;;;;;;;38.57;24.93;;;1.90;1.00;;;;;;5117187;28;20176;-41
2023/02/11 04:57:48;;;;;;;30.10;23.43;;;1.90;1.00;;;;;;5117689;28;20334;-42
2023/02/11 05:00:15;;;;;;;30.40;23.03;;;1.90;1.00;;;;;;5117587;28;20649;-40
2023/02/11 05:02:40;;;;;;;32.53;24.30;;;2.00;1.00;;;;;;5117362;28;20249;-41
2023/02/11 05:05:06;;;;;;;31.40;23.47;;;2.00;1.00;;;;;;5118215;28;20681;-43
2023/02/11 05:07:32;;;;;;;31.17;23.07;;;2.00;1.00;;;;;;5116241;28;20272;-43
2023/02/11 05:09:58;;;;;;;33.47;24.47;;;2.10;1.00;;;;;;5115884;28;20414;-45
2023/02/11 05:12:24;;;;;;;34.73;25.70;;;2.10;1.00;;;;;;5116697;28;20718;-41
2023/02/11 05:14:49;;;;;;;33.50;24.27;;;2.10;1.00;;;;;;5116176;28;20355;-42
2023/02/11 05:17:15;;;;;;;31.67;23.37;;;2.20;1.00;;;;;;5115179;28;20554;-43
2023/02/11 05:19:41;;;;;;;34.50;24.20;;;2.20;1.00;;;;;;5116012;28;20183;-42
2023/02/11 05:22:07;;;;;;;31.63;24.63;;;2.20;1.00;;;;;;5114421;28;20176;-44
2023/02/11 05:24:33;;;;;;;29.67;22.70;;;2.30;1.00;;;;;;5113381;28;20485;-40
2023/02/11 05:27:00;;;;;;;32.67;23.37;;;2.30;1.00;;;;;;5114775;28;20504;-41
2023/02/11 05:29:25;;;;;;;34.13;24.80;;;2.30;1.00;;;;;;5116078;28;20732;-42
2023/02/11 05:31:51;;;;;;;32.77;24.77;;;2.40;1.00;;;;;;5115600;28;20513;-42
2023/02/11 05:34:17;;;;;;;33.03;24.43;;;2.40;1.00;;;;;;5114758;28;20243;-43
2023/02/11 05:36:42;;;;;;;32.40;23.67;;;2.50;1.00;;;;;;5113701;28;20203;-42
2023/02/11 05:39:08;;;;;;;30.27;23.23;;;2.50;1.00;;;;;;5113886;28;20191;-43
2023/02/11 05:41:34;;;;;;;30.93;24.03;;;2.50;1.00;;;;;;5114334;28;20597;-41
2023/02/11 05:43:59;;;;;;;32.23;23.93;;;2.50;1.00;;;;;;5114622;28;20210;-41
2023/02/11 05:46:25;;;;;;;31.70;25.20;;;2.60;1.00;;;;;;5115277;28;20211;-41
2023/02/11 05:48:50;;;;;;;32.60;24.07;;;2.60;1.00;;;;;;5115606;28;20179;-41
2023/02/11 05:51:16;;;;;;;30.80;22.87;;;2.60;1.00;;;;;;5116991;28;20251;-42
2023/02/11 05:53:42;;;;;;;30.90;23.00;;;2.60;1.00;;;;;;5117487;28;20175;-43
2023/02/11 05:56:09;;;;;;;31.13;24.17;;;2.60;1.00;;;;;;5117241;28;20450;-43
2023/02/11 05:58:34;;;;;;;29.30;22.00;;;2.70;1.00;;;;;;5117472;28;20202;-43
2023/02/11 06:01:00;;;;;;;26.90;20.47;;;2.70;1.00;;;;;;5117660;28;20410;-42
2023/02/11 06:03:26;;;;;;;31.70;21.53;;;2.70;1.00;;;;;;5117304;28;20502;-41
2023/02/11 06:05:51;;;;;;;25.80;20.07;;;2.80;1.00;;;;;;5117313;28;20207;-42
2023/02/11 06:08:17;;;;;;;26.97;21.37;;;2.80;1.00;;;;;;5117264;28;20188;-41
2023/02/11 06:10:46;;;;;;;25.00;19.50;;;2.80;1.00;;;;;;5116806;28;20160;-41
2023/02/11 06:13:12;;;;;;;30.83;21.30;;;2.90;1.00;;;;;;5116274;28;20429;-43
2023/02/11 06:15:37;;;;;;;23.97;18.30;;;2.90;1.00;;;;;;5115733;28;20457;-44
2023/02/11 06:18:03;;;;;;;27.57;21.13;;;2.90;1.00;;;;;;5116128;28;20430;-42
2023/02/11 06:20:29;;;;;;;24.17;19.70;;;3.00;1.00;;;;;;5118608;28;20176;-41
2023/02/11 06:22:54;;;;;;;22.80;19.30;;;3.00;1.00;;;;;;5119474;28;20497;-42
2023/02/11 06:25:20;;;;;;;21.63;17.90;;;3.00;1.00;;;;;;5118921;28;20219;-42
2023/02/11 06:27:46;;;;;;;25.27;19.20;;;3.10;1.00;;;;;;5118051;28;20230;-41
2023/02/11 06:30:13;;;;;;;27.00;20.67;;;3.10;1.00;;;;;;5119009;28;20569;-42
2023/02/11 06:32:38;;;;;;;27.53;20.53;;;3.10;1.00;;;;;;5119025;28;20187;-44
2023/02/11 06:35:04;;;;;;;25.30;18.50;;;3.10;1.00;;;;;;5119788;28;20413;-42
2023/02/11 06:37:30;;;;;;;24.00;18.43;;;3.10;1.00;;;;;;5118089;28;20183;-41
2023/02/11 06:39:55;;;;;;;27.00;19.83;;;3.20;1.00;;;;;;5117309;28;20475;-42
2023/02/11 06:42:21;;;;;;;23.37;18.30;;;3.20;1.00;;;;;;5118467;28;20349;-41
2023/02/11 06:44:47;;;;;;;25.60;20.87;;;3.20;1.00;;;;;;5116307;28;20282;-41
2023/02/11 06:47:12;;;;;;;24.13;19.90;;;3.20;1.00;;;;;;5118040;28;20218;-40
2023/02/11 06:49:38;;;;;;;24.53;20.40;;;3.20;1.00;;;;;;5119707;28;20195;-40
2023/02/11 06:52:04;;;;;;;27.50;21.63;;;3.30;1.00;;;;;;5118318;28;20245;-43
2023/02/11 06:54:29;;;;;;;28.97;22.20;;;3.30;1.00;;;;;;5118496;28;20178;-41
2023/02/11 06:56:55;;;;;;;27.03;22.30;;;3.30;1.00;;;;;;5118347;28;20561;-42
2023/02/11 06:59:21;;;;;;;28.93;22.83;;;3.30;1.00;;;;;;5118559;28;20174;-41
2023/02/11 07:01:46;;;;;;;33.00;26.17;;;3.30;1.00;;;;;;5116852;28;20176;-41
2023/02/11 07:04:13;;;;;;;31.27;25.27;;;3.30;1.00;;;;;;5119961;28;20441;-42
2023/02/11 07:06:39;;;;;;;30.10;24.90;;;3.30;1.00;;;;;;5118584;28;20624;-42
2023/02/11 07:09:06;;;;;;;34.30;26.27;;;3.40;1.00;;;;;;5117948;27;20687;-41
2023/02/11 07:11:32;;;;;;;32.10;25.40;;;3.40;1.00;;;;;;5117626;28;20433;-42
2023/02/11 07:14:04;;;;;;;32.43;26.00;;;3.50;1.00;;;;;;5117381;28;20405;-41
2023/02/11 07:16:30;;;;;;;31.50;24.90;;;3.50;1.00;;;;;;5116847;28;20406;-40
2023/02/11 07:18:56;;;;;;;30.03;24.87;;;3.60;1.00;;;;;;5117088;28;20421;-44
2023/02/11 07:21:23;;;;;;;29.00;25.87;;;3.60;1.00;;;;;;5116456;28;20418;-41
2023/02/11 07:23:49;;;;;;;36.40;26.83;;;3.60;1.00;;;;;;5103080;28;20492;-42
2023/02/11 07:26:17;;;;;;;29.80;25.07;;;3.70;1.00;;;;;;5076993;28;20455;-41
2023/02/11 07:28:44;;;;;;;30.70;23.80;;;3.70;1.00;;;;;;5075773;28;20423;-42
2023/02/11 07:31:13;;;;;;;31.00;26.10;;;3.80;1.00;;;;;;5075982;28;20419;-41
2023/02/11 07:33:39;;;;;;;32.43;25.47;;;3.80;1.00;;;;;;5076120;28;20476;-40
2023/02/11 07:36:07;;;;;;;27.93;24.50;;;3.80;1.00;;;;;;5075752;28;20420;-41
2023/02/11 07:38:33;;;;;;;31.20;24.33;;;3.90;1.00;;;;;;5076016;28;20829;-40
2023/02/11 07:41:00;;;;;;;28.13;24.20;;;3.90;1.00;;;;;;5076295;28;20411;-41
2023/02/11 07:43:26;;;;;;;27.57;23.10;;;4.00;1.00;;;;;;5075306;28;20439;-42
2023/02/11 07:45:52;;;;;;;31.80;23.30;;;4.00;1.00;;;;;;5075213;28;20600;-41
2023/02/11 07:48:18;;;;;;;28.70;23.03;;;4.10;1.00;;;;;;5075514;28;20574;-41
2023/02/11 07:50:44;;;;;;;25.60;21.60;;;4.30;1.00;;;;;;5076192;28;20260;-40
2023/02/11 07:53:09;;;;;;;22.80;19.97;;;4.50;1.00;;;;;;5075491;28;20173;-41
2023/02/11 07:55:35;;;;;;;23.60;20.07;;;4.80;1.00;;;;;;5075301;28;20411;-41
2023/02/11 07:58:01;;;;;;;23.20;19.07;;;5.00;1.00;;;;;;5074248;28;20181;-42
2023/02/11 08:00:26;;;;;;;24.53;19.50;;;5.20;1.00;;;;;;5075620;28;20447;-43
2023/02/11 08:02:52;;;;;;;25.03;20.73;;;5.40;1.00;;;;;;5076850;28;20195;-42
2023/02/11 08:05:18;;;;;;;24.93;20.47;;;5.60;1.00;;;;;;5076375;28;20172;-43
2023/02/11 08:07:43;;;;;;;28.13;20.47;;;5.70;1.00;;;;;;5075442;28;20201;-42
2023/02/11 08:10:09;;;;;;;24.83;20.30;;;5.80;1.00;;;;;;5076207;28;20170;-41
2023/02/11 08:12:35;;;;;;;24.90;21.03;;;6.00;1.00;;;;;;5075426;28;20500;-41
2023/02/11 08:15:00;;;;;;;22.43;19.63;;;6.20;1.00;;;;;;5075069;28;20174;-41
2023/02/11 08:17:26;;;;;;;22.13;19.53;;;6.20;1.00;;;;;;5074670;28;20181;-41
2023/02/11 08:19:52;;;;;;;22.53;19.50;;;6.30;1.00;;;;;;5075563;28;20702;-42
2023/02/11 08:22:17;;;;;;;24.07;20.27;;;6.40;1.00;;;;;;5075288;28;20280;-41
2023/02/11 08:24:43;;;;;;;23.20;19.93;;;6.50;1.00;;;;;;5075909;28;20334;-40
2023/02/11 08:27:09;;;;;;;21.73;18.20;;;6.50;1.00;;;;;;5076075;28;20208;-40
2023/02/11 08:29:34;;;;;;;23.50;19.33;;;6.60;1.00;;;;;;5075955;28;20173;-40
2023/02/11 08:32:00;;;;;;;24.63;21.23;;;6.60;1.00;;;;;;5073493;28;20196;-40
2023/02/11 08:34:26;;;;;;;26.70;20.40;;;6.70;1.00;;;;;;5070590;28;20293;-41
2023/02/11 08:36:52;;;;;;;26.57;20.80;;;6.80;1.00;;;;;;5072906;28;20193;-41
2023/02/11 08:39:20;;;;;;;25.00;21.37;;;7.00;1.00;;;;;;5071969;28;20264;-43
2023/02/11 08:41:48;;;;;;;27.23;24.33;;;7.10;1.00;;;;;;5073480;28;20463;-41
2023/02/11 08:44:13;;;;;;;26.57;23.13;;;7.20;1.00;;;;;;5074018;28;20511;-41
2023/02/11 08:46:39;;;;;;;26.03;23.23;;;7.40;1.00;;;;;;5076446;28;20553;-40
2023/02/11 08:49:06;;;;;;;26.53;23.83;;;7.50;1.00;;;;;;5075716;28;20223;-45
2023/02/11 08:51:32;;;;;;;25.93;23.23;;;7.70;1.00;;;;;;5073986;28;20208;-44
2023/02/11 08:53:58;;;;;;;26.47;23.70;;;7.90;1.00;;;;;;5089512;28;20498;-43
2023/02/11 08:56:24;;;;;;;25.23;22.10;;;8.10;1.00;;;;;;5075494;28;20427;-44
2023/02/11 08:58:50;;;;;;;25.13;21.70;;;8.40;1.00;;;;;;5075523;28;20434;-41
2023/02/11 09:01:19;;;;;;;24.27;21.00;;;8.80;1.00;;;;;;5075417;28;20873;-44
2023/02/11 09:03:45;;;;;;;27.63;21.53;;;9.40;1.00;;;;;;5073306;28;20734;-40
2023/02/11 09:06:12;;;;;;;21.77;19.47;;;10.20;1.00;;;;;;5075450;28;20470;-42
2023/02/11 09:08:42;;;;;;;20.87;18.60;;;11.00;1.00;;;;;;5076462;28;20424;-42
2023/02/11 09:11:09;;;;;;;22.60;19.50;;;11.80;1.00;;;;;;5074127;28;20455;-43
2023/02/11 09:13:35;;;;;;;20.90;18.70;;;12.40;1.00;;;;;;5075849;28;20559;-43
2023/02/11 09:16:03;;;;;;;21.20;18.93;;;13.00;1.00;;;;;;5074363;28;20408;-41
2023/02/11 09:18:29;;;;;;;20.70;18.60;;;13.60;1.00;;;;;;5074666;28;20919;-43
2023/02/11 09:21:08;;;;;;;21.33;19.20;;;14.10;1.00;;;;;;5074004;28;20755;-42
2023/02/11 09:23:34;;;;;;;19.30;17.30;;;14.70;1.00;;;;;;5071709;28;20537;-43
2023/02/11 09:26:07;;;;;;;19.03;17.00;;;15.30;1.00;;;;;;5070846;28;20521;-43
2023/02/11 09:28:33;;;;;;;17.47;15.57;;;15.90;1.00;;;;;;5071821;28;20856;-42
2023/02/11 09:30:58;;;;;;;18.47;16.70;;;16.40;1.00;;;;;;5072294;28;20404;-42
2023/02/11 09:33:24;;;;;;;18.40;16.20;;;17.00;1.00;;;;;;5071642;28;20177;-43
2023/02/11 09:35:50;;;;;;;19.00;17.27;;;17.50;1.00;;;;;;5073769;28;20180;-41
2023/02/11 09:38:15;;;;;;;18.70;16.80;;;17.90;1.00;;;;;;5072608;28;20185;-43
2023/02/11 09:40:43;;;;;;;15.90;14.27;;;18.40;1.00;;;;;;5073439;28;20211;-42
2023/02/11 09:43:18;;;;;;;16.97;15.30;;;18.90;1.00;;;;;;5074085;28;20471;-42
2023/02/11 09:45:44;;;;;;;16.00;14.40;;;19.40;1.00;;;;;;5072841;28;20403;-42
2023/02/11 09:48:15;;;;;;;18.50;16.70;;;19.80;1.00;;;;;;5072335;28;20426;-43
2023/02/11 09:50:51;;;;;;;17.17;15.57;;;20.10;1.00;;;;;;5090752;28;20694;-43
2023/02/11 09:53:28;;;;;;;15.27;13.87;;;20.20;1.00;;;;;;5073040;28;20919;-43
2023/02/11 09:56:10;;;;;;;16.93;15.27;;;20.60;1.00;;;;;;5072562;28;20415;-42
2023/02/11 09:58:41;;;;;;;15.60;14.00;;;21.10;1.00;;;;;;5070403;28;20833;-44
2023/02/11 10:01:30;;;;;;;14.87;13.53;;;21.50;1.00;;;;;;5070566;28;20504;-42
2023/02/11 10:04:03;;;;;;;14.80;13.37;;;21.80;1.00;;;;;;5073103;28;20412;-44
2023/02/11 10:06:48;;;;;;;12.97;11.73;;;22.20;1.00;;;;;;5074302;28;20465;-45
2023/02/11 10:09:28;;;;;;;23.40;13.17;;;22.70;1.00;;;;;;5074409;28;20403;-46
2023/02/11 10:12:29;;;;;;;11.10;10.10;;;23.20;1.00;;;;;;5093651;28;20430;-43
2023/02/11 10:15:13;;;;;;;11.80;10.40;;;23.70;1.00;;;;;;5093741;28;20437;-44
2023/02/11 10:17:45;;;;;;;9.83;8.33;;;23.90;1.00;;;;;;5094809;28;20499;-43
2023/02/11 10:20:23;;;;;;;9.57;8.63;;;23.80;1.00;;;;;;5091957;28;20429;-44
2023/02/11 10:23:00;;;;;;;10.97;9.30;;;23.70;1.00;;;;;;5093388;28;20718;-44
2023/02/11 10:25:29;;;;;;;10.00;8.53;;;23.90;1.00;;;;;;5094843;28;20458;-42
2023/02/11 10:27:57;;;;;;;9.80;8.90;;;24.30;1.00;;;;;;5095255;28;20474;-43
2023/02/11 10:30:32;;;;;;;10.40;8.10;;;24.90;1.00;;;;;;5094229;28;20426;-44
2023/02/11 10:33:16;;;;;;;10.10;9.10;;;25.40;1.00;;;;;;5095182;28;20551;-42
2023/02/11 10:35:42;;;;;;;10.23;9.27;;;25.80;1.00;;;;;;5096926;28;20441;-43
2023/02/11 10:38:09;;;;;;;9.40;8.40;;;26.20;1.00;;;;;;5095889;28;20434;-42
2023/02/11 10:40:35;;;;;;;9.63;8.80;;;26.60;1.00;;;;;;5093951;28;20646;-44
2023/02/11 10:43:04;;;;;;;9.13;8.33;;;26.90;1.00;;;;;;5093542;28;20441;-43
2023/02/11 10:45:50;;;;;;;8.57;7.40;;;27.00;1.00;;;;;;5089543;28;20268;-45
2023/02/11 10:48:45;;;;;;;8.17;7.47;;;27.20;1.00;;;;;;5074610;28;20501;-45
2023/02/11 10:51:36;;;;;;;9.23;8.13;;;27.50;1.00;;;;;;5093908;28;20425;-44
2023/02/11 10:54:11;;;;;;;8.67;7.33;;;27.80;1.00;;;;;;5092735;28;20402;-53
2023/02/11 10:56:45;;;;;;;8.67;7.97;;;28.00;1.00;;;;;;5092651;28;20541;-44
2023/02/11 10:59:27;;;;;;;8.50;7.70;;;28.30;1.00;;;;;;5089811;28;20425;-43
2023/02/11 11:01:59;;;;;;;9.53;8.63;;;28.60;1.00;;;;;;5090599;28;20461;-45
2023/02/11 11:04:40;;;;;;;8.87;8.13;;;28.80;1.00;;;;;;5094537;28;20632;-44
2023/02/11 11:07:29;;;;;;;7.80;7.07;;;29.10;1.00;;;;;;5096279;28;20448;-42
2023/02/11 11:10:01;;;;;;;9.60;8.70;;;29.20;1.00;;;;;;5070251;28;20506;-43
2023/02/11 11:12:32;;;;;;;9.17;8.33;;;30.20;1.00;;;;;;5098515;28;20470;-41
2023/02/11 11:15:20;;;;;;;10.13;8.97;;;31.80;1.00;;;;;;5095885;28;20408;-40
2023/02/11 11:17:47;;;;;;;11.00;10.00;;;33.20;1.00;;;;;;5088993;28;20500;-42
2023/02/11 11:20:30;;;;;;;8.93;8.23;;;34.40;1.00;;;;;;5080421;28;20414;-42
2023/02/11 11:23:19;;;;;;;9.60;8.27;;;35.10;1.00;;;;;;5096460;28;20696;-41
2023/02/11 11:26:02;;;;;;;9.37;8.43;;;35.80;1.00;;;;;;5094446;28;20470;-44
2023/02/11 11:28:30;;;;;;;8.70;7.90;;;36.50;1.00;;;;;;5094573;28;20430;-43
2023/02/11 11:30:57;;;;;;;8.33;7.63;;;36.60;1.00;;;;;;5095102;28;20410;-45
2023/02/11 11:33:32;;;;;;;9.00;8.30;;;36.90;1.00;;;;;;5091736;28;20493;-43
2023/02/11 11:36:07;;;;;;;8.37;7.57;;;37.20;1.00;;;;;;5077269;28;20513;-43
2023/02/11 11:38:36;;;;;;;11.60;8.60;;;37.30;1.00;;;;;;5093867;28;20476;-45
2023/02/11 11:41:29;;;;;;;8.57;7.87;;;37.30;1.00;;;;;;5094200;28;20429;-44
2023/02/11 11:44:13;;;;;;;6.60;6.10;;;37.50;1.00;;;;;;5095760;28;20925;-43
2023/02/11 11:46:41;;;;;;;8.37;7.73;;;38.10;1.00;;;;;;5093539;28;20454;-43
2023/02/11 11:49:17;;;;;;;8.53;7.73;;;38.40;1.00;;;;;;5091991;28;20805;-43
2023/02/11 11:51:50;;;;;;;7.23;6.53;;;38.40;1.00;;;;;;5090908;28;20660;-43
2023/02/11 11:54:19;;;;;;;7.30;6.70;;;38.20;1.00;;;;;;5092810;28;20430;-45
2023/02/11 11:56:52;;;;;;;8.40;7.53;;;38.30;1.00;;;;;;5096011;28;20430;-46
2023/02/11 11:59:18;;;;;;;7.00;6.40;;;38.50;1.00;;;;;;5093903;28;20488;-48
2023/02/11 12:01:57;;;;;;;6.53;5.73;;;38.80;1.00;;;;;;5095200;28;20901;-44
2023/02/11 12:04:26;;;;;;;6.13;5.70;;;39.10;1.00;;;;;;5095731;28;20180;-45
2023/02/11 12:06:54;;;;;;;7.40;6.80;;;39.40;1.00;;;;;;5093869;28;20895;-48
2023/02/11 12:09:29;;;;;;;6.93;6.23;;;39.40;1.00;;;;;;5093508;28;20419;-49
2023/02/11 12:12:35;;;;;;;6.10;5.63;;;39.30;1.00;;;;;;5092640;28;20444;-45
2023/02/11 12:15:14;;;;;;;6.80;6.30;;;39.30;1.00;;;;;;5094814;28;20439;-44
2023/02/11 12:18:14;;;;;;;5.97;5.47;;;39.70;1.00;;;;;;5093349;28;20691;-44
2023/02/11 12:21:15;;;;;;;5.50;5.07;;;39.60;1.00;;;;;;5093351;28;20426;-47
2023/02/11 12:23:44;;;;;;;6.13;5.63;;;39.00;1.00;;;;;;5093300;28;20517;-43
2023/02/11 12:26:21;;;;;;;9.90;9.00;;;38.30;1.00;;;;;;5095253;28;20458;-46
2023/02/11 12:29:09;;;;;;;10.20;9.20;;;38.20;1.00;;;;;;5094677;28;20429;-45
2023/02/11 12:31:47;;;;;;;15.27;13.77;;;38.20;1.00;;;;;;5092842;28;20414;-46
2023/02/11 12:34:37;;;;;;;11.77;10.57;;;37.70;1.00;;;;;;5089514;28;20680;-46
2023/02/11 12:37:13;;;;;;;12.27;10.97;;;36.70;1.00;;;;;;5093024;28;20518;-47
2023/02/11 12:39:54;;;;;;;8.20;7.50;;;36.10;1.00;;;;;;5092583;28;20408;-42
2023/02/11 12:45:31;;;;;;;8.90;8.10;;;36.10;1.00;;;;;;5092076;28;20417;-46
2023/02/11 12:48:21;;;;;;;8.00;7.20;;;37.10;1.00;;;;;;5089447;28;20744;-45
2023/02/11 12:51:06;;;;;;;6.67;6.07;;;37.70;1.00;;;;;;5087197;28;20415;-46
2023/02/11 12:54:13;;;;;;;6.73;5.70;;;37.90;1.00;;;;;;5088644;28;20698;-47
2023/02/11 12:57:10;;;;;;;7.33;6.73;;;38.10;1.00;;;;;;5077937;28;20707;-43
2023/02/11 13:00:03;;;;;;;6.30;5.57;;;38.70;1.00;;;;;;5088845;28;20711;-46
2023/02/11 13:02:40;;;;;;;6.53;5.93;;;39.20;1.00;;;;;;5088028;28;20414;-48
2023/02/11 13:05:19;;;;;;;6.53;5.93;;;39.30;1.00;;;;;;5089652;28;20467;-45
2023/02/11 13:07:45;;;;;;;6.63;5.27;;;39.10;1.00;;;;;;5092139;28;20426;-44
2023/02/11 13:10:23;;;;;;;8.20;6.50;;;39.10;1.00;;;;;;5090161;28;20406;-48
2023/02/11 13:15:35;;;;;;;6.63;5.93;;;39.60;1.00;;;;;;5094207;28;20599;-46